Time;durP1;ratioP1;P1;durP2;ratioP2;P2;SDS_P1;SDS_P2;PMS_P1;PMS_P2;Temp;Humidity;BMP_temperature;BMP_pressure;BME280_temperature;BME280_humidity;BME280_pressure;Samples;Min_cycle;Max_cycle;Signal;HPM_P1;HPM_P2
2022/02/22 00:01:27;;;;;;;2.45;1.73;;;3.50;99.90;;;;;;5052363;28;20512;-34
2022/02/22 00:03:53;;;;;;;2.95;1.52;;;3.40;99.90;;;;;;5045785;28;20028;-33
2022/02/22 00:06:18;;;;;;;1.70;1.10;;;3.40;99.90;;;;;;5049410;28;20029;-33
2022/02/22 00:08:44;;;;;;;1.60;0.98;;;3.30;99.90;;;;;;5051800;28;20036;-33
2022/02/22 00:11:10;;;;;;;1.30;1.20;;;3.30;99.90;;;;;;5055901;28;20021;-33
2022/02/22 00:13:35;;;;;;;1.05;0.98;;;3.30;99.90;;;;;;5051988;28;20385;-33
2022/02/22 00:16:01;;;;;;;1.38;1.27;;;3.20;99.90;;;;;;5050389;28;20037;-33
2022/02/22 00:18:27;;;;;;;0.95;0.88;;;3.20;99.90;;;;;;5048185;28;20493;-33
2022/02/22 00:20:53;;;;;;;2.03;1.02;;;3.20;99.90;;;;;;5045645;28;20036;-34
2022/02/22 00:23:19;;;;;;;2.20;0.90;;;3.10;99.90;;;;;;5051054;28;20032;-33
2022/02/22 00:25:45;;;;;;;5.05;1.35;;;3.20;99.90;;;;;;5050952;28;20565;-33
2022/02/22 00:28:10;;;;;;;8.38;1.45;;;3.20;99.90;;;;;;5057229;28;20659;-35
2022/02/22 00:30:36;;;;;;;1.35;1.25;;;3.20;99.90;;;;;;5054963;28;20039;-32
2022/02/22 00:33:02;;;;;;;1.40;1.15;;;3.20;99.90;;;;;;5046538;28;20935;-33
2022/02/22 00:35:28;;;;;;;1.20;1.20;;;3.30;99.90;;;;;;5049078;28;20024;-32
2022/02/22 00:37:53;;;;;;;3.60;1.05;;;3.40;99.90;;;;;;5051048;28;20375;-33
2022/02/22 00:40:19;;;;;;;3.05;1.50;;;3.50;99.90;;;;;;5047953;28;20045;-33
2022/02/22 00:42:45;;;;;;;1.17;1.08;;;3.50;99.90;;;;;;5048049;28;20032;-34
2022/02/22 00:45:11;;;;;;;2.08;1.25;;;3.70;99.90;;;;;;5054079;28;20029;-33
2022/02/22 00:47:37;;;;;;;2.97;1.35;;;3.70;99.90;;;;;;5043768;28;20424;-34
2022/02/22 00:50:04;;;;;;;3.60;1.42;;;3.80;99.90;;;;;;5047770;28;20033;-33
2022/02/22 00:52:30;;;;;;;3.13;1.10;;;3.80;99.90;;;;;;5050968;28;20052;-33
2022/02/22 00:54:56;;;;;;;2.08;1.08;;;3.80;99.90;;;;;;5046670;28;20041;-33
2022/02/22 00:57:21;;;;;;;1.63;1.20;;;3.80;99.90;;;;;;5046580;28;20083;-34
2022/02/22 00:59:47;;;;;;;0.88;0.88;;;3.80;99.90;;;;;;5050952;28;20660;-33
2022/02/22 01:02:13;;;;;;;3.67;1.23;;;3.80;99.90;;;;;;5047092;28;20052;-33
2022/02/22 01:04:39;;;;;;;6.40;1.30;;;3.80;99.90;;;;;;5047832;28;20033;-34
2022/02/22 01:07:05;;;;;;;4.97;1.30;;;3.80;99.90;;;;;;5053759;28;20059;-35
2022/02/22 01:09:31;;;;;;;3.63;1.45;;;3.80;99.90;;;;;;5044295;28;20452;-35
2022/02/22 01:11:56;;;;;;;3.20;1.10;;;3.80;99.90;;;;;;5049644;28;20116;-33
2022/02/22 01:14:22;;;;;;;2.20;1.08;;;3.80;99.90;;;;;;5044327;28;20048;-32
2022/02/22 01:16:47;;;;;;;3.20;1.08;;;3.80;99.90;;;;;;5048148;28;20103;-33
2022/02/22 01:19:13;;;;;;;4.18;1.33;;;3.80;99.90;;;;;;5052133;28;20064;-33
2022/02/22 01:21:39;;;;;;;1.23;1.13;;;3.80;99.90;;;;;;5045830;28;20029;-34
2022/02/22 01:24:05;;;;;;;2.13;1.10;;;3.80;99.90;;;;;;5049711;28;20428;-34
2022/02/22 01:26:32;;;;;;;2.05;1.17;;;3.80;99.90;;;;;;5050642;28;20379;-33
2022/02/22 01:28:58;;;;;;;0.90;0.70;;;3.80;99.90;;;;;;5057598;28;20482;-33
2022/02/22 01:31:25;;;;;;;1.73;0.80;;;3.90;99.90;;;;;;5049606;28;20033;-34
2022/02/22 01:33:54;;;;;;;1.23;1.10;;;3.90;99.90;;;;;;5051124;28;20025;-34
2022/02/22 01:36:27;;;;;;;4.03;1.13;;;3.90;99.90;;;;;;5050331;28;20040;-34
2022/02/22 01:38:53;;;;;;;5.18;1.23;;;3.90;99.90;;;;;;5048588;28;20040;-34
2022/02/22 01:41:20;;;;;;;3.75;1.17;;;4.00;99.90;;;;;;5049791;28;20017;-33
2022/02/22 01:43:46;;;;;;;1.73;0.90;;;4.00;99.90;;;;;;5050255;28;20048;-33
2022/02/22 01:46:12;;;;;;;3.45;2.00;;;4.00;99.90;;;;;;5053511;28;20040;-33
2022/02/22 01:48:37;;;;;;;1.98;1.10;;;4.00;99.90;;;;;;5048268;28;20017;-33
2022/02/22 01:51:04;;;;;;;2.20;1.35;;;4.00;99.90;;;;;;5055703;28;20040;-33
2022/02/22 01:53:30;;;;;;;2.30;1.38;;;4.00;99.90;;;;;;5052876;28;20032;-33
2022/02/22 01:55:56;;;;;;;1.27;1.08;;;4.00;99.90;;;;;;5052493;28;20040;-33
2022/02/22 01:58:24;;;;;;;2.17;1.55;;;4.00;99.90;;;;;;5055125;28;20116;-34
2022/02/22 02:00:49;;;;;;;2.13;1.50;;;4.00;99.90;;;;;;5055262;28;20465;-35
2022/02/22 02:03:16;;;;;;;3.28;1.65;;;4.00;99.90;;;;;;5052337;28;20025;-33
2022/02/22 02:05:44;;;;;;;0.80;0.80;;;4.00;99.90;;;;;;5051914;28;20078;-37
2022/02/22 02:08:13;;;;;;;1.52;1.35;;;4.00;99.90;;;;;;5053833;28;20024;-37
2022/02/22 02:10:39;;;;;;;1.27;1.10;;;4.00;99.90;;;;;;5049239;28;20029;-34
2022/02/22 02:13:05;;;;;;;1.88;1.38;;;4.00;99.90;;;;;;5052114;28;20370;-35
2022/02/22 02:15:33;;;;;;;1.88;1.80;;;4.10;99.90;;;;;;5053140;28;20025;-37
2022/02/22 02:17:59;;;;;;;3.38;1.50;;;4.00;99.90;;;;;;5049976;28;20520;-34
2022/02/22 02:20:25;;;;;;;1.17;0.85;;;4.00;99.90;;;;;;5052579;28;20065;-34
2022/02/22 02:22:51;;;;;;;2.53;1.10;;;4.00;99.90;;;;;;5052309;28;20032;-35
2022/02/22 02:25:16;;;;;;;1.40;1.13;;;4.00;99.90;;;;;;5054591;28;20025;-35
2022/02/22 02:27:43;;;;;;;0.80;0.80;;;4.00;99.90;;;;;;5053682;28;20052;-34
2022/02/22 02:30:10;;;;;;;0.82;0.82;;;4.00;99.90;;;;;;5048517;28;20437;-35
2022/02/22 02:32:36;;;;;;;0.98;0.80;;;4.00;99.90;;;;;;5051079;28;20405;-32
2022/02/22 02:35:04;;;;;;;1.85;1.13;;;4.00;99.90;;;;;;5051674;28;20109;-32
2022/02/22 02:37:29;;;;;;;2.47;1.27;;;4.00;99.90;;;;;;5049282;28;20115;-32
2022/02/22 02:39:55;;;;;;;1.77;1.10;;;4.00;99.90;;;;;;5051168;28;20067;-35
2022/02/22 02:42:20;;;;;;;1.50;0.90;;;3.90;99.90;;;;;;5051741;28;20087;-33
2022/02/22 02:44:48;;;;;;;1.92;1.50;;;3.90;99.90;;;;;;5053713;28;20025;-32
2022/02/22 02:47:15;;;;;;;0.73;0.73;;;3.90;99.90;;;;;;5053233;28;20021;-34
2022/02/22 02:49:43;;;;;;;1.63;1.23;;;3.90;99.90;;;;;;5050089;28;20279;-33
2022/02/22 02:52:09;;;;;;;1.80;0.93;;;3.90;99.90;;;;;;5044444;28;20064;-32
2022/02/22 02:54:35;;;;;;;5.28;1.42;;;3.90;99.90;;;;;;5041885;28;20033;-33
2022/02/22 02:57:02;;;;;;;1.00;1.00;;;3.90;99.90;;;;;;5039322;28;20080;-32
2022/02/22 02:59:27;;;;;;;6.30;1.27;;;3.90;99.90;;;;;;5045767;28;20029;-33
2022/02/22 03:01:53;;;;;;;3.28;1.40;;;3.90;99.90;;;;;;5044673;28;20538;-32
2022/02/22 03:04:19;;;;;;;1.73;1.42;;;3.90;99.90;;;;;;5044693;28;20036;-34
2022/02/22 03:06:45;;;;;;;1.73;1.50;;;3.90;99.90;;;;;;5046463;28;20021;-32
2022/02/22 03:09:12;;;;;;;2.00;1.13;;;3.90;99.90;;;;;;5044473;28;20117;-33
2022/02/22 03:11:38;;;;;;;1.33;0.98;;;3.90;99.90;;;;;;5046015;28;20083;-33
2022/02/22 03:14:05;;;;;;;3.42;1.30;;;4.00;99.90;;;;;;5047151;28;20354;-35
2022/02/22 03:16:31;;;;;;;2.42;1.20;;;3.90;99.90;;;;;;5046434;28;20867;-32
2022/02/22 03:18:57;;;;;;;0.70;0.70;;;3.90;99.90;;;;;;5045930;28;20080;-33
2022/02/22 03:21:23;;;;;;;6.50;0.93;;;3.90;99.90;;;;;;5047469;28;20428;-32
2022/02/22 03:23:48;;;;;;;2.45;2.22;;;3.90;99.90;;;;;;5042573;28;21589;-33
2022/02/22 03:26:14;;;;;;;2.08;0.90;;;3.80;99.90;;;;;;5047093;28;20035;-35
2022/02/22 03:28:40;;;;;;;5.28;1.33;;;3.80;99.90;;;;;;5047452;28;20033;-35
2022/02/22 03:31:05;;;;;;;1.80;1.20;;;3.80;99.90;;;;;;5052624;28;20041;-32
2022/02/22 03:33:32;;;;;;;1.23;1.08;;;3.70;99.90;;;;;;5042619;28;20029;-32
2022/02/22 03:35:59;;;;;;;1.75;0.98;;;3.70;99.90;;;;;;5045044;28;20033;-31
2022/02/22 03:38:25;;;;;;;0.98;0.98;;;3.70;99.90;;;;;;5045590;28;20072;-32
2022/02/22 03:40:52;;;;;;;2.72;1.30;;;3.60;99.90;;;;;;5046872;28;20123;-32
2022/02/22 03:43:17;;;;;;;2.75;1.52;;;3.60;99.90;;;;;;5044394;28;20115;-32
2022/02/22 03:45:43;;;;;;;1.13;0.90;;;3.60;99.90;;;;;;5043241;28;20107;-35
2022/02/22 03:48:09;;;;;;;3.78;1.58;;;3.60;99.90;;;;;;5044858;28;20064;-33
2022/02/22 03:50:34;;;;;;;2.65;1.38;;;3.60;99.90;;;;;;5042999;28;20025;-32
2022/02/22 03:53:00;;;;;;;2.35;1.10;;;3.50;99.90;;;;;;5046237;28;20036;-33
2022/02/22 03:55:26;;;;;;;1.27;1.10;;;3.50;99.90;;;;;;5049636;28;20021;-32
2022/02/22 03:57:52;;;;;;;3.80;1.33;;;3.50;99.90;;;;;;5047813;28;20033;-33
2022/02/22 04:00:23;;;;;;;3.50;1.52;;;3.60;99.90;;;;;;5044110;28;20028;-32
2022/02/22 04:02:49;;;;;;;1.80;1.00;;;3.70;99.90;;;;;;5045420;28;20438;-33
2022/02/22 04:05:16;;;;;;;1.35;1.25;;;3.70;99.90;;;;;;5047452;28;20060;-32
2022/02/22 04:07:42;;;;;;;1.30;1.20;;;3.60;99.90;;;;;;5050180;28;20078;-32
2022/02/22 04:10:09;;;;;;;6.15;1.73;;;3.60;99.90;;;;;;5044439;28;20381;-32
2022/02/22 04:12:35;;;;;;;1.00;1.00;;;3.60;99.90;;;;;;5045335;28;20044;-33
2022/02/22 04:15:00;;;;;;;3.60;1.15;;;3.60;99.90;;;;;;5049280;28;20136;-32
2022/02/22 04:17:26;;;;;;;4.57;1.13;;;3.60;99.90;;;;;;5046706;28;20154;-32
2022/02/22 04:19:52;;;;;;;1.83;1.40;;;3.60;99.90;;;;;;5048874;28;20119;-33
2022/02/22 04:22:19;;;;;;;2.67;1.20;;;3.60;99.90;;;;;;5050322;28;20028;-35
2022/02/22 04:24:45;;;;;;;5.15;1.60;;;3.70;99.90;;;;;;5046557;28;20067;-32
2022/02/22 04:27:11;;;;;;;4.78;1.48;;;3.60;99.90;;;;;;5036638;28;20162;-32
2022/02/22 04:29:37;;;;;;;2.17;1.20;;;3.60;99.90;;;;;;5048089;28;20036;-34
2022/02/22 04:32:04;;;;;;;2.45;1.50;;;3.70;99.90;;;;;;5047619;28;20043;-34
2022/02/22 04:34:29;;;;;;;1.80;1.33;;;3.60;99.90;;;;;;5051774;28;20055;-32
2022/02/22 04:36:55;;;;;;;4.57;1.77;;;3.60;99.90;;;;;;5051265;28;20033;-33
2022/02/22 04:39:21;;;;;;;1.17;1.08;;;3.60;99.90;;;;;;5052405;28;20083;-31
2022/02/22 04:41:46;;;;;;;0.90;0.90;;;3.50;99.90;;;;;;5047763;28;20048;-32
2022/02/22 04:44:12;;;;;;;3.42;1.60;;;3.10;99.90;;;;;;5046694;28;20030;-33
2022/02/22 04:46:38;;;;;;;1.50;0.90;;;2.80;99.90;;;;;;5047243;28;20021;-33
2022/02/22 04:49:08;;;;;;;0.63;0.63;;;2.60;99.90;;;;;;5053099;28;20037;-32
2022/02/22 04:51:34;;;;;;;0.93;0.90;;;2.40;99.90;;;;;;5043248;28;20119;-35
2022/02/22 04:54:00;;;;;;;2.95;1.20;;;2.60;99.90;;;;;;5048914;28;20051;-34
2022/02/22 04:56:26;;;;;;;0.80;0.80;;;2.60;99.90;;;;;;5048535;28;20024;-35
2022/02/22 04:58:52;;;;;;;1.98;1.40;;;2.60;99.90;;;;;;5052861;28;20029;-32
2022/02/22 05:01:17;;;;;;;1.08;1.05;;;2.60;99.90;;;;;;5043281;28;20036;-32
2022/02/22 05:03:43;;;;;;;2.15;0.80;;;2.70;99.90;;;;;;5050694;28;20713;-33
2022/02/22 05:06:08;;;;;;;2.08;1.48;;;2.70;99.90;;;;;;5046610;28;20099;-32
2022/02/22 05:08:34;;;;;;;1.42;0.82;;;2.70;99.90;;;;;;5052185;28;20358;-33
2022/02/22 05:11:00;;;;;;;1.13;1.02;;;2.70;99.90;;;;;;5043295;28;20033;-32
2022/02/22 05:13:25;;;;;;;1.15;1.10;;;2.60;99.90;;;;;;5046891;28;20086;-32
2022/02/22 05:15:51;;;;;;;4.00;1.70;;;2.60;99.90;;;;;;5045893;28;20428;-32
2022/02/22 05:18:16;;;;;;;1.52;1.33;;;2.50;99.90;;;;;;5049757;28;20025;-31
2022/02/22 05:20:54;;;;;;;3.50;1.27;;;2.50;99.90;;;;;;5054912;28;20078;-32
2022/02/22 05:23:24;;;;;;;0.60;0.60;;;2.50;99.90;;;;;;5049753;28;20474;-34
2022/02/22 05:25:50;;;;;;;0.73;0.73;;;2.50;99.90;;;;;;5055380;28;20078;-35
2022/02/22 05:28:17;;;;;;;1.65;1.13;;;2.50;99.90;;;;;;5052877;28;20051;-32
2022/02/22 05:30:43;;;;;;;6.50;1.00;;;2.60;99.90;;;;;;5051901;28;20052;-32
2022/02/22 05:33:09;;;;;;;1.65;1.08;;;2.50;99.90;;;;;;5044633;28;20116;-32
2022/02/22 05:35:35;;;;;;;1.17;1.10;;;2.50;99.90;;;;;;5048717;28;20468;-32
2022/02/22 05:38:00;;;;;;;1.52;1.10;;;2.50;99.90;;;;;;5049809;28;20100;-34
2022/02/22 05:40:26;;;;;;;1.88;1.00;;;2.60;99.90;;;;;;5051130;28;20035;-33
2022/02/22 05:42:51;;;;;;;1.55;1.45;;;2.50;99.90;;;;;;5051558;28;20100;-32
2022/02/22 05:45:17;;;;;;;3.00;1.67;;;2.60;99.90;;;;;;5053662;28;20385;-32
2022/02/22 05:47:43;;;;;;;6.20;2.15;;;2.70;99.90;;;;;;5049947;28;20549;-32
2022/02/22 05:50:12;;;;;;;4.38;1.40;;;2.70;99.90;;;;;;5053271;28;20099;-34
2022/02/22 05:52:37;;;;;;;2.38;1.38;;;2.70;99.90;;;;;;5047997;28;20098;-33
2022/02/22 05:55:03;;;;;;;2.70;1.38;;;2.60;99.90;;;;;;5054945;28;20493;-34
2022/02/22 05:57:29;;;;;;;6.97;1.85;;;2.60;99.90;;;;;;5050729;28;20040;-33
2022/02/22 05:59:54;;;;;;;3.67;1.50;;;2.50;99.90;;;;;;5049211;28;20467;-33
2022/02/22 06:02:20;;;;;;;1.50;1.40;;;2.50;99.90;;;;;;5048112;28;20045;-32
2022/02/22 06:04:46;;;;;;;2.53;1.30;;;2.50;99.90;;;;;;5053117;28;20029;-33
2022/02/22 06:07:11;;;;;;;3.25;1.05;;;2.40;99.90;;;;;;5056479;28;20021;-33
2022/02/22 06:09:38;;;;;;;1.05;1.00;;;2.30;99.90;;;;;;5045859;28;20040;-32
2022/02/22 06:12:04;;;;;;;1.10;1.02;;;2.20;99.90;;;;;;5048987;28;20044;-32
2022/02/22 06:14:30;;;;;;;4.68;1.17;;;2.20;99.90;;;;;;5045555;28;20029;-32
2022/02/22 06:16:56;;;;;;;1.13;1.13;;;2.20;99.90;;;;;;5056165;28;20524;-32
2022/02/22 06:19:22;;;;;;;3.30;1.65;;;2.30;99.90;;;;;;5048063;28;20033;-33
2022/02/22 06:21:48;;;;;;;3.33;1.20;;;2.30;99.90;;;;;;5047620;28;20405;-32
2022/02/22 06:24:14;;;;;;;1.38;1.27;;;2.30;99.90;;;;;;5048001;28;20032;-31
2022/02/22 06:26:39;;;;;;;2.58;1.52;;;2.30;99.90;;;;;;5047846;28;20036;-32
2022/02/22 06:29:05;;;;;;;1.23;1.23;;;2.30;99.90;;;;;;5050347;28;20042;-34
2022/02/22 06:31:31;;;;;;;1.90;1.00;;;2.30;99.90;;;;;;5049586;28;20045;-31
2022/02/22 06:33:56;;;;;;;1.10;0.75;;;2.30;99.90;;;;;;5049913;28;20392;-32
2022/02/22 06:36:22;;;;;;;1.08;1.00;;;2.30;99.90;;;;;;5051430;28;20032;-36
2022/02/22 06:38:48;;;;;;;2.20;1.08;;;2.40;99.90;;;;;;5049533;28;20091;-31
2022/02/22 06:41:14;;;;;;;2.17;0.73;;;2.40;99.90;;;;;;5052757;28;20560;-32
2022/02/22 06:43:39;;;;;;;4.20;1.90;;;2.40;99.90;;;;;;5049600;28;20032;-31
2022/02/22 06:46:05;;;;;;;1.65;1.55;;;2.40;99.90;;;;;;5047194;28;20155;-33
2022/02/22 06:48:31;;;;;;;1.88;1.10;;;2.40;99.90;;;;;;5045077;28;20505;-34
2022/02/22 06:50:56;;;;;;;5.95;1.52;;;2.40;99.90;;;;;;5046692;28;20056;-34
2022/02/22 06:53:22;;;;;;;3.83;1.02;;;2.40;99.90;;;;;;5046712;28;20039;-35
2022/02/22 06:55:47;;;;;;;1.48;1.08;;;2.50;99.90;;;;;;5052881;28;20032;-32
2022/02/22 06:58:13;;;;;;;2.80;1.52;;;2.50;99.90;;;;;;5049139;28;20393;-31
2022/02/22 07:00:43;;;;;;;2.13;1.38;;;2.50;99.90;;;;;;5052576;28;20032;-34
2022/02/22 07:03:09;;;;;;;2.50;1.58;;;2.60;99.90;;;;;;5048132;28;20029;-34
2022/02/22 07:05:35;;;;;;;3.55;1.50;;;2.60;99.90;;;;;;5052934;28;20596;-32
2022/02/22 07:08:01;;;;;;;4.70;1.77;;;2.60;99.90;;;;;;5051046;28;20033;-32
2022/02/22 07:10:27;;;;;;;3.80;1.30;;;2.60;99.90;;;;;;5048199;28;20017;-32
2022/02/22 07:12:54;;;;;;;1.27;1.17;;;2.60;99.90;;;;;;5046538;28;20039;-31
2022/02/22 07:15:20;;;;;;;3.40;1.42;;;2.60;99.90;;;;;;5046162;28;20032;-32
2022/02/22 07:17:47;;;;;;;0.95;0.95;;;2.60;99.90;;;;;;5052072;28;20523;-35
2022/02/22 07:20:14;;;;;;;1.17;1.10;;;2.60;99.90;;;;;;5048191;28;20043;-33
2022/02/22 07:22:40;;;;;;;1.40;1.30;;;2.60;99.90;;;;;;5047001;28;20382;-32
2022/02/22 07:25:07;;;;;;;1.40;1.30;;;2.80;99.90;;;;;;5047739;28;20028;-33
2022/02/22 07:27:33;;;;;;;2.33;1.20;;;2.90;99.90;;;;;;5055032;28;20127;-32
2022/02/22 07:29:58;;;;;;;2.47;2.28;;;2.80;99.90;;;;;;5046262;28;20163;-33
2022/02/22 07:32:24;;;;;;;1.80;1.00;;;3.00;99.90;;;;;;5042187;28;20361;-33
2022/02/22 07:34:50;;;;;;;2.60;1.27;;;3.00;99.90;;;;;;5047799;28;20116;-33
2022/02/22 07:37:15;;;;;;;2.53;1.92;;;3.00;99.90;;;;;;5040765;28;20028;-36
2022/02/22 07:39:41;;;;;;;2.08;1.38;;;3.10;99.90;;;;;;5047174;28;20116;-36
2022/02/22 07:42:06;;;;;;;2.08;1.17;;;3.10;99.90;;;;;;5050108;28;20048;-33
2022/02/22 07:44:32;;;;;;;5.15;1.38;;;3.10;99.90;;;;;;5048266;28;20109;-33
2022/02/22 07:46:57;;;;;;;2.97;1.38;;;3.20;99.90;;;;;;5052458;28;20466;-33
2022/02/22 07:49:23;;;;;;;2.40;1.50;;;3.20;99.90;;;;;;5050310;28;20028;-34
2022/02/22 07:51:49;;;;;;;2.70;1.67;;;3.30;99.90;;;;;;5052894;28;20393;-33
2022/02/22 07:54:14;;;;;;;14.80;1.73;;;3.40;99.90;;;;;;5039897;28;20389;-33
2022/02/22 07:56:41;;;;;;;1.45;1.27;;;3.50;99.90;;;;;;5047324;28;20515;-34
2022/02/22 07:59:06;;;;;;;1.35;1.35;;;3.60;99.90;;;;;;5052791;28;20094;-33
2022/02/22 08:01:32;;;;;;;5.53;1.67;;;3.60;99.90;;;;;;5046106;28;20032;-34
2022/02/22 08:03:58;;;;;;;2.63;1.63;;;3.60;99.90;;;;;;5073120;28;20067;-34
2022/02/22 08:06:25;;;;;;;3.50;1.45;;;3.70;99.90;;;;;;5043647;28;20068;-33
2022/02/22 08:08:53;;;;;;;3.65;1.85;;;3.60;99.90;;;;;;5042430;28;20051;-33
2022/02/22 08:11:19;;;;;;;1.27;1.17;;;3.50;99.90;;;;;;5040148;28;20044;-34
2022/02/22 08:13:45;;;;;;;2.38;1.58;;;3.40;99.90;;;;;;5044626;28;20033;-34
2022/02/22 08:16:11;;;;;;;1.05;0.85;;;3.30;99.90;;;;;;5040225;28;20095;-34
2022/02/22 08:18:36;;;;;;;1.45;0.93;;;3.50;99.90;;;;;;5047130;28;20040;-35
2022/02/22 08:21:02;;;;;;;1.20;0.73;;;3.60;99.90;;;;;;5050867;28;20464;-33
2022/02/22 08:23:31;;;;;;;1.02;0.95;;;3.70;99.90;;;;;;5048908;28;20024;-33
2022/02/22 08:26:00;;;;;;;;;;;3.80;99.90;;;;;;5046957;28;20463;-35
2022/02/22 08:28:26;;;;;;;1.25;1.25;;;3.90;99.90;;;;;;5050163;28;19922;-35
2022/02/22 08:30:52;;;;;;;3.90;1.00;;;4.10;99.90;;;;;;5043357;28;20124;-33
2022/02/22 08:33:18;;;;;;;1.52;1.35;;;4.10;99.90;;;;;;5041334;28;20029;-34
2022/02/22 08:35:43;;;;;;;5.35;1.80;;;4.10;99.90;;;;;;5041341;28;20022;-34
2022/02/22 08:38:09;;;;;;;4.95;1.23;;;4.00;99.90;;;;;;5046404;28;20108;-33
2022/02/22 08:40:34;;;;;;;4.22;2.13;;;4.00;99.90;;;;;;5047427;28;20120;-34
2022/02/22 08:43:00;;;;;;;1.33;1.20;;;4.00;99.90;;;;;;5043361;28;20025;-33
2022/02/22 08:45:26;;;;;;;2.65;1.35;;;4.20;99.90;;;;;;5039949;28;20029;-34
2022/02/22 08:47:53;;;;;;;3.50;1.80;;;4.30;99.90;;;;;;5043364;28;20496;-35
2022/02/22 08:50:20;;;;;;;1.13;1.13;;;4.20;99.90;;;;;;5039768;28;20425;-34
2022/02/22 08:52:45;;;;;;;6.32;1.20;;;4.20;99.90;;;;;;5046653;28;20033;-33
2022/02/22 08:55:11;;;;;;;1.73;1.63;;;4.20;99.90;;;;;;5044286;28;20079;-33
2022/02/22 08:57:37;;;;;;;1.10;1.10;;;4.30;99.90;;;;;;5038325;28;20381;-33
2022/02/22 09:00:09;;;;;;;5.18;1.52;;;4.40;99.90;;;;;;5042651;28;20041;-33
2022/02/22 09:02:36;;;;;;;4.18;1.23;;;4.40;99.90;;;;;;5045668;28;20034;-35
2022/02/22 09:05:02;;;;;;;4.72;1.67;;;4.50;99.90;;;;;;5063267;28;20025;-34
2022/02/22 09:07:27;;;;;;;4.07;1.48;;;4.40;99.90;;;;;;5040188;28;20053;-35
2022/02/22 09:09:53;;;;;;;4.18;1.50;;;4.50;99.90;;;;;;5044599;28;20087;-33
2022/02/22 09:12:18;;;;;;;3.70;1.20;;;4.60;99.90;;;;;;5046086;28;20040;-32
2022/02/22 09:14:44;;;;;;;2.67;1.35;;;4.60;99.90;;;;;;5043726;28;20028;-35
2022/02/22 09:17:09;;;;;;;2.15;1.65;;;4.70;99.90;;;;;;5039888;28;20133;-34
2022/02/22 09:19:38;;;;;;;1.13;1.10;;;4.70;99.90;;;;;;5046127;28;20607;-34
2022/02/22 09:22:04;;;;;;;6.13;1.70;;;4.80;99.90;;;;;;5046984;28;20116;-36
2022/02/22 09:24:29;;;;;;;1.02;0.80;;;4.80;99.90;;;;;;5039864;28;20104;-36
2022/02/22 09:26:56;;;;;;;1.88;1.60;;;4.90;99.90;;;;;;5064338;28;20163;-33
2022/02/22 09:29:22;;;;;;;1.73;1.25;;;4.90;99.90;;;;;;5041417;28;20048;-34
2022/02/22 09:31:49;;;;;;;4.63;1.50;;;4.90;99.90;;;;;;5044201;28;20036;-33
2022/02/22 09:34:15;;;;;;;2.00;1.13;;;4.90;99.90;;;;;;5042806;28;20040;-34
2022/02/22 09:36:41;;;;;;;1.15;1.05;;;4.80;99.90;;;;;;5049178;28;20023;-34
2022/02/22 09:39:07;;;;;;;1.38;1.10;;;4.80;99.90;;;;;;5039789;28;20037;-34
2022/02/22 09:41:35;;;;;;;3.20;0.95;;;4.70;99.90;;;;;;5043824;28;20098;-34
2022/02/22 09:44:01;;;;;;;;;;;4.70;99.90;;;;;;5041456;28;20033;-34
2022/02/22 09:46:29;;;;;;;2.78;1.20;;;4.60;99.90;;;;;;5036510;28;20331;-33
2022/02/22 09:48:54;;;;;;;13.60;1.58;;;4.80;99.90;;;;;;5037051;28;20588;-33
2022/02/22 09:51:20;;;;;;;2.05;1.10;;;4.90;99.90;;;;;;5045208;28;20038;-33
2022/02/22 09:53:46;;;;;;;1.30;1.20;;;5.10;99.90;;;;;;5042461;28;20048;-33
2022/02/22 09:56:11;;;;;;;1.88;1.33;;;5.10;99.90;;;;;;5034045;28;20029;-35
2022/02/22 09:58:38;;;;;;;2.35;1.30;;;5.00;99.90;;;;;;5040399;28;20025;-34
2022/02/22 10:01:04;;;;;;;4.07;1.52;;;5.00;99.90;;;;;;5036607;28;20037;-34
2022/02/22 10:03:30;;;;;;;3.40;1.15;;;5.00;99.90;;;;;;5042332;28;20032;-34
2022/02/22 10:06:02;;;;;;;4.75;1.67;;;5.00;99.90;;;;;;5043731;28;20028;-34
2022/02/22 10:08:30;;;;;;;8.77;1.60;;;5.10;99.90;;;;;;5047542;28;20031;-34
2022/02/22 10:11:02;;;;;;;1.25;1.08;;;5.20;99.90;;;;;;5047536;28;20098;-34
2022/02/22 10:13:30;;;;;;;6.72;1.48;;;5.20;99.90;;;;;;5046525;28;20044;-33
2022/02/22 10:15:58;;;;;;;1.25;1.25;;;5.20;99.90;;;;;;5057401;28;20025;-33
2022/02/22 10:18:25;;;;;;;5.13;1.73;;;5.20;99.90;;;;;;5053279;28;20037;-35
2022/02/22 10:20:51;;;;;;;1.30;1.10;;;5.20;99.90;;;;;;5050979;28;20022;-34
2022/02/22 10:23:31;;;;;;;2.85;1.30;;;5.20;99.90;;;;;;5048523;28;20175;-34
2022/02/22 10:25:58;;;;;;;5.70;1.58;;;5.20;99.90;;;;;;5048410;28;20029;-36
2022/02/22 10:28:24;;;;;;;0.85;0.82;;;5.30;99.90;;;;;;5058078;28;20044;-35
2022/02/22 10:30:53;;;;;;;1.15;1.05;;;5.40;99.90;;;;;;5052088;28;20056;-34
2022/02/22 10:33:21;;;;;;;2.70;1.63;;;5.50;99.90;;;;;;5053659;28;20037;-36
2022/02/22 10:35:50;;;;;;;3.55;2.20;;;5.50;99.90;;;;;;5047145;28;20509;-33
2022/02/22 10:38:28;;;;;;;1.00;1.00;;;5.50;99.90;;;;;;5042238;28;20447;-35
2022/02/22 10:41:06;;;;;;;4.28;1.27;;;5.50;99.90;;;;;;5049099;28;20033;-34
2022/02/22 10:43:37;;;;;;;2.72;1.10;;;5.40;99.90;;;;;;5047635;28;20033;-33
2022/02/22 10:46:06;;;;;;;2.42;1.63;;;5.40;99.90;;;;;;5052173;28;20029;-35
2022/02/22 10:48:41;;;;;;;1.40;1.15;;;5.60;99.90;;;;;;5048915;28;20040;-33
2022/02/22 10:51:16;;;;;;;0.82;0.82;;;5.60;99.90;;;;;;5059234;28;20031;-33
2022/02/22 10:53:43;;;;;;;1.55;1.42;;;5.60;99.90;;;;;;5061214;28;20076;-34
2022/02/22 10:56:11;;;;;;;3.22;2.90;;;5.70;99.90;;;;;;5058240;28;20416;-33
2022/02/22 10:58:43;;;;;;;1.70;1.17;;;5.80;99.90;;;;;;5045860;28;20528;-34
2022/02/22 11:01:14;;;;;;;3.50;0.93;;;5.80;99.90;;;;;;5043407;28;20366;-34
2022/02/22 11:03:43;;;;;;;1.70;1.38;;;5.90;99.90;;;;;;5045712;28;20051;-33
2022/02/22 11:06:11;;;;;;;0.95;0.82;;;5.80;99.90;;;;;;5050214;28;20033;-33
2022/02/22 11:08:49;;;;;;;5.25;1.23;;;5.90;99.90;;;;;;5045427;28;20029;-33
2022/02/22 11:11:34;;;;;;;2.30;1.80;;;5.90;99.90;;;;;;5054469;28;20021;-34
2022/02/22 11:14:03;;;;;;;2.95;1.45;;;5.90;99.90;;;;;;5055296;28;20032;-34
2022/02/22 11:16:45;;;;;;;3.80;1.33;;;5.90;99.90;;;;;;5046287;28;20374;-34
2022/02/22 11:19:19;;;;;;;2.10;1.08;;;5.90;99.90;;;;;;5051034;28;20040;-35
2022/02/22 11:21:47;;;;;;;1.15;0.88;;;5.90;99.90;;;;;;5040963;28;20036;-34
2022/02/22 11:24:15;;;;;;;1.02;0.98;;;6.10;99.90;;;;;;5051249;28;20039;-33
2022/02/22 11:26:57;;;;;;;2.67;1.00;;;6.10;99.90;;;;;;5045839;28;20040;-33
2022/02/22 11:29:25;;;;;;;1.17;1.05;;;6.10;99.90;;;;;;5033434;28;20436;-36
2022/02/22 11:32:01;;;;;;;2.00;0.80;;;6.10;99.90;;;;;;5042142;28;20040;-33
2022/02/22 11:34:38;;;;;;;2.75;1.70;;;6.20;99.90;;;;;;5034806;28;20028;-34
2022/02/22 11:37:07;;;;;;;2.50;1.33;;;6.20;99.90;;;;;;5038102;28;20566;-33
2022/02/22 11:39:45;;;;;;;4.68;1.52;;;6.00;99.90;;;;;;5042082;28;20449;-33
2022/02/22 11:42:33;;;;;;;2.90;1.30;;;6.00;99.90;;;;;;5048269;28;20695;-34
2022/02/22 11:45:04;;;;;;;4.70;1.42;;;6.00;99.90;;;;;;5042496;28;20088;-33
2022/02/22 11:47:32;;;;;;;1.40;0.90;;;6.20;99.90;;;;;;5036609;28;20022;-33
2022/02/22 11:49:58;;;;;;;3.30;1.33;;;6.60;99.90;;;;;;5048200;28;20123;-33
2022/02/22 11:52:38;;;;;;;2.92;1.60;;;6.70;99.90;;;;;;5043522;28;20037;-34
2022/02/22 11:55:06;;;;;;;2.75;1.27;;;6.90;99.90;;;;;;5040225;28;20439;-33
2022/02/22 11:57:49;;;;;;;4.22;1.85;;;7.20;99.90;;;;;;5045204;28;20040;-35
2022/02/22 12:00:17;;;;;;;2.17;1.13;;;7.10;99.90;;;;;;5043894;28;20461;-33
2022/02/22 12:02:44;;;;;;;6.00;1.40;;;6.90;99.90;;;;;;5037117;28;20030;-33
2022/02/22 12:05:40;;;;;;;2.28;1.63;;;7.20;99.90;;;;;;5047917;28;20102;-33
2022/02/22 12:08:23;;;;;;;4.43;1.60;;;7.30;99.90;;;;;;5036599;28;20043;-33
2022/02/22 12:10:50;;;;;;;1.85;1.17;;;7.30;99.90;;;;;;5037096;28;20029;-33
2022/02/22 12:13:18;;;;;;;4.60;1.63;;;7.30;99.90;;;;;;5036131;28;20393;-34
2022/02/22 12:15:45;;;;;;;2.57;1.63;;;7.50;99.90;;;;;;5041150;28;20488;-33
2022/02/22 12:18:13;;;;;;;1.65;1.27;;;7.30;99.90;;;;;;5051098;28;20688;-34
2022/02/22 12:20:39;;;;;;;2.67;1.52;;;7.30;99.90;;;;;;5041066;28;20382;-33
2022/02/22 12:23:04;;;;;;;2.70;1.40;;;7.20;99.90;;;;;;5042792;28;20029;-36
2022/02/22 12:25:30;;;;;;;3.03;1.20;;;7.10;99.90;;;;;;5043375;28;20034;-32
2022/02/22 12:28:01;;;;;;;1.63;1.30;;;7.10;99.90;;;;;;5054590;28;20045;-33
2022/02/22 12:30:36;;;;;;;2.75;1.58;;;7.10;99.90;;;;;;5043515;28;20025;-34
2022/02/22 12:33:02;;;;;;;1.55;1.30;;;7.20;99.90;;;;;;5042717;28;20452;-33
2022/02/22 12:35:36;;;;;;;0.85;0.77;;;7.30;99.90;;;;;;5039022;28;20032;-33
2022/02/22 12:38:11;;;;;;;1.83;1.35;;;7.30;99.90;;;;;;5046094;28;20029;-35
2022/02/22 12:40:37;;;;;;;3.92;1.30;;;7.40;99.90;;;;;;5038349;28;20044;-34
2022/02/22 12:43:05;;;;;;;3.58;1.45;;;7.50;99.90;;;;;;5041625;28;20037;-33
2022/02/22 12:45:43;;;;;;;1.77;1.40;;;7.60;99.90;;;;;;5041106;28;20110;-33
2022/02/22 12:48:10;;;;;;;1.15;1.05;;;7.60;99.90;;;;;;5044428;28;20406;-33
2022/02/22 12:50:36;;;;;;;3.22;0.80;;;7.70;99.90;;;;;;5048914;28;20495;-33
2022/02/22 12:53:03;;;;;;;1.17;1.00;;;7.70;99.90;;;;;;5050739;28;20107;-36
2022/02/22 12:55:29;;;;;;;4.75;1.10;;;7.80;99.40;;;;;;5053166;28;20036;-33
2022/02/22 12:58:08;;;;;;;3.40;1.38;;;7.80;97.70;;;;;;5043697;28;20071;-33